Data for 10/05/2013

Time Sea-Level Adjusted Pressure Absolute Pressure Temperature Relative Humidity Dew Point   
(mb) (inHg) (mb) (inHg) (C) (F) (%) (C) (F)
00:05 1029 30.39 858 25.34 -1.8 28.7 82 -4.6 23.8
00:10 1029 30.39 858 25.34 -1.7 28.9 82 -4.4 24
00:15 1029 30.39 858 25.34 -2 28.4 83 -4.5 24
00:20 1029 30.39 858 25.34 -2 28.4 83 -4.6 23.8
00:25 1029 30.39 858 25.34 -2 28.5 82 -4.6 23.7
00:30 1029 30.39 858 25.34 -1.8 28.7 81 -4.6 23.7
00:35 1029 30.39 858 25.34 -1.7 28.9 80 -4.7 23.6
00:40 1029 30.39 858 25.34 -1.6 29.1 80 -4.7 23.6
00:45 1029 30.39 858 25.34 -1.5 29.2 79 -4.7 23.6
00:50 1029 30.39 858 25.34 -1.4 29.6 78 -4.7 23.6
00:55 1029 30.39 858 25.34 -1.4 29.5 79 -4.6 23.7
01:00 1029 30.39 858 25.34 -1.4 29.5 80 -4.5 23.9
01:05 1029 30.39 858 25.34 -1.5 29.4 79 -4.7 23.6
01:10 1029 30.39 858 25.34 -1.3 29.6 77 -4.8 23.4
01:15 1029 30.39 858 25.34 -1.4 29.5 79 -4.6 23.7
01:20 1029 30.39 858 25.34 -1.6 29.1 80 -4.7 23.6
01:25 1029 30.39 858 25.34 -1.9 28.6 80 -4.9 23.2
01:30 1029 30.39 858 25.34 -2 28.5 81 -4.8 23.3
01:35 1029 30.39 858 25.34 -1.9 28.5 80 -4.9 23.2
01:40 1029 30.39 858 25.34 -1.9 28.6 80 -4.9 23.1
01:45 1029 30.39 858 25.34 -1.8 28.8 79 -5 23
01:50 1029 30.39 858 25.34 -1.7 28.9 78 -5.1 22.9
01:55 1029 30.39 858 25.34 -1.5 29.3 77 -5 23
02:00 1029 30.39 858 25.34 -1.6 29.2 79 -4.8 23.4
02:05 1029 30.39 858 25.34 -2 28.3 83 -4.6 23.8
02:10 1029 30.39 858 25.34 -2.4 27.7 82 -5 23
02:15 1029 30.39 858 25.34 -2.2 28 83 -4.8 23.4
02:20 1029 30.39 858 25.34 -2.3 27.9 83 -4.8 23.4
02:25 1029 30.39 858 25.34 -2.6 27.4 84 -4.9 23.2
02:30 1029 30.39 858 25.34 -2.4 27.7 82 -5 23
02:35 1029 30.39 858 25.34 -2.2 28 81 -5 23
02:40 1029 30.39 858 25.34 -1.9 28.6 80 -4.9 23.2
02:45 1029 30.39 858 25.34 -1.9 28.5 81 -4.8 23.3
02:50 1029 30.39 858 25.34 -2 28.4 81 -4.8 23.4
02:55 1029 30.39 858 25.34 -2.1 28.1 82 -4.9 23.2
03:00 1029 30.39 858 25.34 -2.1 28.2 82 -4.8 23.3
03:05 1029 30.39 858 25.34 -2.3 27.9 83 -4.8 23.3
03:10 1029 30.39 858 25.34 -2.7 27.2 84 -5 23.1
03:15 1029 30.39 858 25.34 -2.7 27.2 84 -5.1 22.9
03:20 1029 30.39 858 25.34 -2.3 27.9 82 -5 23
03:25 1029 30.39 858 25.34 -2.2 28.1 82 -4.8 23.3
03:30 1029 30.39 858 25.34 -2.3 27.8 82 -5 22.9
03:35 1029 30.39 858 25.34 -2.2 28 82 -4.9 23.1
03:40 1028 30.36 858 25.34 -2.2 28 81 -5.1 22.8
03:45 1028 30.36 858 25.34 -2.2 28 82 -4.9 23.2
03:50 1028 30.36 857 25.31 -2.2 28.1 79 -5.4 22.3
03:55 1028 30.36 857 25.31 -2.2 28 79 -5.3 22.4
04:00 1028 30.36 857 25.31 -2.3 27.8 79 -5.5 22.2
04:05 1028 30.36 857 25.31 -2.1 28.2 78 -5.4 22.3
04:10 1028 30.36 857 25.31 -2.4 27.6 80 -5.4 22.3
04:15 1028 30.36 857 25.31 -2.8 26.9 83 -5.3 22.4
04:20 1028 30.36 857 25.31 -2.9 26.8 84 -5.3 22.5
04:25 1028 30.36 857 25.31 -3.3 26.1 85 -5.5 22.2
04:30 1028 30.36 857 25.31 -3.3 26 86 -5.4 22.3
04:35 1028 30.36 857 25.31 -3.4 25.9 87 -5.3 22.5
04:40 1028 30.36 857 25.31 -3.3 26.1 86 -5.4 22.4
04:45 1028 30.36 857 25.31 -3.1 26.5 84 -5.3 22.4
04:50 1028 30.36 857 25.31 -2.7 27.1 83 -5.2 22.6
04:55 1028 30.36 857 25.31 -2.8 27 83 -5.3 22.5
05:00 1028 30.36 857 25.31 -2.9 26.7 83 -5.4 22.3
05:05 1028 30.36 857 25.31 -3.1 26.5 84 -5.4 22.3
05:10 1028 30.36 857 25.31 -3.1 26.5 84 -5.4 22.3
05:15 1028 30.36 857 25.31 -3.1 26.5 84 -5.4 22.3
05:20 1028 30.36 857 25.31 -3 26.5 84 -5.4 22.4
05:25 1028 30.36 857 25.31 -2.9 26.8 83 -5.5 22.2
05:30 1028 30.36 857 25.31 -2.5 27.4 82 -5.3 22.5
05:35 1028 30.36 857 25.31 -2.5 27.5 81 -5.4 22.3
05:40 1028 30.36 857 25.31 -2.5 27.5 79 -5.6 21.8
05:45 1028 30.36 857 25.31 -2.5 27.4 78 -5.8 21.6
05:50 1028 30.36 857 25.31 -2.5 27.4 78 -5.9 21.4
05:55 1028 30.36 858 25.34 -2.6 27.3 78 -6 21.2
06:00 1028 30.36 858 25.34 -3 26.7 80 -5.9 21.4
06:05 1028 30.36 858 25.34 -3.2 26.3 79 -6.2 20.8
06:10 1028 30.36 858 25.34 -2.5 27.4 76 -6.2 20.9
06:15 1029 30.39 858 25.34 -2.8 27 77 -6.3 20.7
06:20 1029 30.39 858 25.34 -2.8 27 77 -6.3 20.7
06:25 1029 30.39 858 25.34 -2.7 27.2 71 -7.2 19
06:30 1029 30.39 858 25.34 -2.3 27.8 74 -6.4 20.5
06:35 1029 30.39 858 25.34 -2.6 27.3 73 -6.8 19.7
06:40 1029 30.39 858 25.34 -2.7 27.2 73 -6.9 19.6
06:45 1029 30.39 858 25.34 -2.6 27.3 72 -6.9 19.5
06:50 1029 30.39 858 25.34 -2.6 27.4 74 -6.7 20
06:55 1029 30.39 858 25.34 -2.5 27.5 72 -6.9 19.6
07:00 1029 30.39 858 25.34 -2.6 27.4 72 -6.9 19.6
07:05 1029 30.39 858 25.34 -2.5 27.4 71 -7 19.3
07:10 1029 30.39 858 25.34 -2.3 27.8 70 -7 19.4
07:15 1029 30.39 858 25.34 -1.9 28.7 69 -6.9 19.6
07:20 1029 30.39 858 25.34 -1.4 29.5 67 -6.7 19.9
07:25 1029 30.39 858 25.34 -1.3 29.6 68 -6.5 20.3
07:30 1029 30.39 858 25.34 -1.1 30 66 -6.7 20
07:35 1029 30.39 858 25.34 -0.4 31.3 63 -6.5 20.3
07:40 1029 30.39 858 25.34 0.3 32.6 60 -6.5 20.4
07:45 1029 30.39 858 25.34 1.1 34.1 58 -6.2 20.8
07:50 1029 30.39 858 25.34 1.3 34.3 57 -6.3 20.7
07:55 1029 30.39 858 25.34 1.4 34.5 58 -5.9 21.3
08:00 1029 30.39 858 25.34 1.1 33.9 58 -6.2 20.8
08:05 1029 30.39 858 25.34 1.3 34.4 58 -6.1 21
08:10 1029 30.39 858 25.34 1.9 35.5 56 -5.9 21.3
08:15 1029 30.39 858 25.34 1.9 35.5 63 -4.4 24
08:20 1029 30.39 858 25.34 1.4 34.6 64 -4.7 23.5
08:25 1029 30.39 858 25.34 1.2 34.2 64 -4.8 23.4
08:30 1029 30.39 858 25.34 1.6 34.8 63 -4.7 23.5
08:35 1029 30.39 858 25.34 1.3 34.4 65 -4.6 23.7
08:40 1029 30.39 858 25.34 1.4 34.5 62 -5 22.9
08:45 1029 30.39 858 25.34 2.2 36 62 -4.4 24.1
08:50 1029 30.39 858 25.34 2.2 36 62 -4.3 24.2
08:55 1029 30.39 859 25.37 2.2 36 62 -4.4 24.1
09:00 1029 30.39 858 25.34 2.5 36.4 60 -4.5 23.9
09:05 1029 30.39 858 25.34 2.7 36.9 58 -4.8 23.4
09:10 1029 30.39 858 25.34 2.6 36.7 60 -4.4 24.2
09:15 1029 30.39 858 25.34 3.1 37.5 57 -4.7 23.6
09:20 1029 30.39 858 25.34 3 37.5 57 -4.7 23.5
09:25 1029 30.39 858 25.34 3 37.3 57 -4.8 23.3
09:30 1029 30.39 858 25.34 2.9 37.2 55 -5.2 22.7
09:35 1029 30.39 858 25.34 3.2 37.7 55 -5.1 22.8
09:40 1029 30.39 858 25.34 3.5 38.4 54 -4.8 23.3
09:45 1029 30.39 858 25.34 3.9 39 52 -5 23.1
09:50 1029 30.39 858 25.34 4.4 40 51 -4.9 23.3
09:55 1029 30.39 858 25.34 4.8 40.6 50 -4.8 23.4
10:00 1029 30.39 858 25.34 5 41 50 -4.7 23.6
10:05 1029 30.39 858 25.34 4.7 40.4 48 -5.5 22
10:10 1029 30.39 858 25.34 4.7 40.4 47 -5.6 21.8
10:15 1029 30.39 858 25.34 5.2 41.4 47 -5.2 22.6
10:20 1029 30.39 858 25.34 5.9 42.6 44 -5.5 22
10:25 1029 30.39 858 25.34 6 42.8 42 -5.8 21.6
10:30 1029 30.39 858 25.34 6.3 43.4 42 -5.5 22.1
10:35 1029 30.39 858 25.34 6.6 43.9 40 -5.9 21.3
10:40 1029 30.39 858 25.34 7.2 44.9 40 -5.6 21.8
10:45 1029 30.39 858 25.34 7.5 45.6 40 -5.3 22.5
10:50 1029 30.39 858 25.34 8 46.4 36 -6.2 20.8
10:55 1029 30.39 858 25.34 8.4 47.1 38 -5.1 22.8
11:00 1029 30.39 858 25.34 8.7 47.6 33 -6.7 19.9
11:05 1029 30.39 858 25.34 8.8 47.8 33 -6.6 20.2
11:10 1029 30.39 858 25.34 8.5 47.3 33 -6.7 19.9
11:15 1029 30.39 858 25.34 8.6 47.5 33 -6.7 20
11:20 1029 30.39 858 25.34 8.5 47.2 35 -6 21.2
11:25 1028 30.36 858 25.34 8.2 46.8 36 -6 21.1
11:30 1028 30.36 858 25.34 8.6 47.4 33 -6.7 19.9
11:35 1028 30.36 858 25.34 9.2 48.6 32 -6.7 20
11:40 1028 30.36 858 25.34 9.4 49 32 -6.3 20.7
11:45 1028 30.36 858 25.34 9.7 49.4 32 -6.3 20.6
11:50 1028 30.36 858 25.34 9.8 49.6 36 -4.4 24
11:55 1028 30.36 858 25.34 9.2 48.5 33 -6.2 20.9
12:00 1028 30.36 858 25.34 8.9 48.1 37 -4.9 23.2
12:05 1028 30.36 857 25.31 9.2 48.5 35 -5.4 22.3
12:10 1028 30.36 857 25.31 9.5 49 32 -6.3 20.7
12:15 1028 30.36 857 25.31 9.8 49.7 33 -5.5 22.1
12:20 1028 30.36 857 25.31 9.7 49.5 33 -5.6 21.9
12:25 1028 30.36 857 25.31 9.8 49.7 34 -5.4 22.2
12:30 1028 30.36 857 25.31 9.9 49.8 34 -5.1 22.8
12:35 1028 30.36 857 25.31 9.9 49.8 35 -4.8 23.4
12:40 1028 30.36 857 25.31 10.5 50.8 35 -4.4 24.1
12:45 1028 30.36 857 25.31 10.6 51 32 -5.4 22.3
12:50 1028 30.36 857 25.31 11.3 52.3 28 -6.7 20
12:55 1028 30.36 857 25.31 11.8 53.2 25 -7.8 18
13:00 1028 30.36 857 25.31 11.4 52.6 28 -6.2 20.8
13:05 1028 30.36 857 25.31 11.7 53.1 28 -6.1 21
13:10 1028 30.36 857 25.31 12.1 53.7 27 -6.5 20.2
13:15 1028 30.36 857 25.31 12.5 54.4 25 -6.9 19.6
13:20 1027 30.33 857 25.31 12.3 54.1 26 -6.9 19.6
13:25 1027 30.33 857 25.31 12.3 54.2 23 -8 17.6
13:30 1027 30.33 857 25.31 12.2 53.9 26 -6.6 20.1
13:35 1027 30.33 857 25.31 12 53.7 26 -6.7 20
13:40 1027 30.33 857 25.31 12 53.5 25 -7.7 18.2
13:45 1027 30.33 857 25.31 12.3 54.1 26 -6.8 19.8
13:50 1027 30.33 857 25.31 12.2 54 25 -7.3 18.9
13:55 1027 30.33 857 25.31 12.1 53.7 25 -7.4 18.7
14:00 1027 30.33 857 25.31 11.9 53.4 25 -7.6 18.3
14:05 1027 30.33 857 25.31 11.8 53.3 25 -7.4 18.7
14:10 1027 30.33 857 25.31 11.8 53.3 24 -8.3 17.1
14:15 1027 30.33 856 25.28 11.3 52.4 28 -6.6 20.1
14:20 1027 30.33 856 25.28 10.9 51.6 27 -7.3 18.9
14:25 1027 30.33 856 25.28 11.2 52.1 29 -6 21.2
14:30 1027 30.33 856 25.28 11.3 52.3 28 -6.3 20.6
14:35 1027 30.33 856 25.28 11.2 52.2 29 -6.4 20.5
14:40 1027 30.33 856 25.28 11.1 52 30 -5.9 21.3
14:45 1027 30.33 856 25.28 11.4 52.5 29 -6 21.2
14:50 1027 30.33 856 25.28 11.7 53 29 -5.6 22
14:55 1027 30.33 856 25.28 11.8 53.3 29 -5.4 22.2
15:00 1027 30.33 856 25.28 12.1 53.9 26 -6.9 19.5
15:05 1027 30.33 856 25.28 12.6 54.8 25 -6.8 19.8
15:10 1027 30.33 856 25.28 12.5 54.6 25 -6.7 19.9
15:15 1027 30.33 856 25.28 11.4 52.5 26 -7.3 18.8
15:20 1027 30.33 856 25.28 11.1 51.9 28 -6.6 20.2
15:25 1027 30.33 856 25.28 11.5 52.8 28 -6.4 20.6
15:30 1027 30.33 856 25.28 11.3 52.3 27 -7.1 19.2
15:35 1027 30.33 856 25.28 10.9 51.7 27 -7.1 19.1
15:40 1027 30.33 856 25.28 10.7 51.3 27 -7.3 18.9
15:45 1027 30.33 856 25.28 11 51.8 28 -7 19.4
15:50 1027 30.33 856 25.28 11.5 52.6 26 -7.3 18.9
15:55 1027 30.33 856 25.28 11.2 52.2 28 -6.8 19.7
16:00 1027 30.33 856 25.28 11.6 52.8 26 -7.2 19.1
16:05 1027 30.33 856 25.28 11.6 53 27 -6.8 19.8
16:10 1027 30.33 856 25.28 11.4 52.4 27 -6.8 19.7
16:15 1027 30.33 856 25.28 11.1 51.9 27 -7.1 19.3
16:20 1027 30.33 856 25.28 10.9 51.6 28 -6.6 20.1
16:25 1027 30.33 856 25.28 11.3 52.4 28 -6.5 20.2
16:30 1027 30.33 856 25.28 11.4 52.4 27 -6.8 19.7
16:35 1027 30.33 856 25.28 11.7 53 26 -7.2 19
16:40 1027 30.33 856 25.28 11.7 53.1 27 -6.6 20.1
16:45 1027 30.33 856 25.28 11.5 52.7 27 -6.9 19.6
16:50 1027 30.33 856 25.28 11.7 53.1 27 -6.4 20.4
16:55 1027 30.33 856 25.28 11.8 53.3 27 -6.5 20.3
17:00 1027 30.33 856 25.28 12.1 53.7 27 -6.1 20.9
17:05 1027 30.33 856 25.28 11.5 52.6 30 -5.6 21.9
17:10 1027 30.33 856 25.28 11.1 51.9 30 -5.7 21.7
17:15 1027 30.33 856 25.28 10.8 51.5 31 -5.5 22.1
17:20 1027 30.33 856 25.28 10.7 51.2 32 -5.3 22.4
17:05 1023 30.21 852 25.16 17.6 63.7 28 -0.8 30.6
17:10 1022 30.18 852 25.16 17.3 63.2 29 -0.9 30.5
17:15 1022 30.18 852 25.16 17.1 62.9 30 -0.7 30.8
17:20 1022 30.18 852 25.16 17 62.6 30 -0.7 30.7
17:25 1022 30.18 852 25.16 16.9 62.4 30 -0.4 31.2
17:30 1022 30.18 852 25.16 16.6 61.8 32 -0.3 31.5
17:35 1022 30.18 851 25.13 16.3 61.3 32 -0.2 31.7
17:40 1022 30.18 851 25.13 16.1 61 32 -0.3 31.4
17:45 1022 30.18 851 25.13 16 60.8 36 0.8 33.5
17:50 1022 30.18 851 25.13 14.6 58.2 45 2.8 37
17:55 1022 30.18 851 25.13 13.4 56 49 2.9 37.2
18:00 1022 30.18 851 25.13 12.6 54.6 51 2.7 36.8
18:05 1022 30.18 851 25.13 12.1 53.8 52 2.5 36.6
18:10 1022 30.18 851 25.13 11.7 53.1 53 2.4 36.3
18:15 1022 30.18 851 25.13 11.4 52.6 53 2.2 36
18:20 1022 30.18 851 25.13 11.2 52.2 53 2.2 35.9
18:25 1022 30.18 851 25.13 10.6 51.1 57 2.6 36.7
18:30 1022 30.18 851 25.13 10 50 60 2.6 36.7
18:35 1022 30.18 851 25.13 9.8 49.6 59 2.3 36.2
18:40 1022 30.18 851 25.13 9.9 49.7 58 2 35.6
18:45 1022 30.18 851 25.13 9.9 49.7 56 1.5 34.7
18:50 1022 30.18 851 25.13 10.4 50.7 56 2 35.6
18:55 1022 30.18 851 25.13 10.2 50.3 57 2 35.6
19:00 1022 30.18 851 25.13 9.5 49.1 62 2.6 36.7
19:05 1022 30.18 851 25.13 8.7 47.7 63 2.1 35.8
19:10 1022 30.18 851 25.13 8.3 46.9 64 1.8 35.3
19:15 1022 30.18 851 25.13 8.3 47 63 1.7 35.1
19:20 1022 30.18 851 25.13 8.1 46.6 65 1.9 35.4
19:25 1022 30.18 851 25.13 7.9 46.2 63 1.3 34.3
19:30 1022 30.18 851 25.13 8 46.3 59 0.5 32.9
19:35 1022 30.18 851 25.13 8.5 47.3 58 0.7 33.3
19:40 1022 30.18 851 25.13 8.5 47.2 57 0.4 32.8
19:45 1022 30.18 851 25.13 8.5 47.3 56 0.3 32.5
19:50 1022 30.18 851 25.13 8.4 47.1 56 0.2 32.4
19:55 1022 30.18 851 25.13 8.2 46.7 57 0.3 32.5
20:00 1022 30.18 851 25.13 7.9 46.3 57 -0 32
20:05 1022 30.18 851 25.13 8 46.4 57 0 32
20:10 1022 30.18 851 25.13 8 46.4 56 -0.1 31.8
20:15 1022 30.18 851 25.13 7.8 46.1 57 -0.2 31.6
20:20 1022 30.18 851 25.13 7.8 46.1 56 -0.5 31.2
20:25 1022 30.18 851 25.13 7.8 46.1 55 -0.7 30.7
20:30 1021 30.15 851 25.13 7.9 46.3 53 -1 30.1
20:35 1021 30.15 851 25.13 8.2 46.7 53 -0.9 30.4
20:40 1021 30.15 851 25.13 8.1 46.6 53 -0.8 30.6
20:45 1021 30.15 851 25.13 8.1 46.6 52 -1.1 30
20:50 1021 30.15 850 25.1 8.2 46.7 51 -1.2 29.8
20:55 1021 30.15 850 25.1 8.4 47.1 50 -1.5 29.4
21:00 1021 30.15 850 25.1 8.5 47.3 50 -1.2 29.8
21:05 1021 30.15 850 25.1 8.4 47 50 -1.4 29.4
21:10 1021 30.15 850 25.1 8.1 46.6 50 -1.6 29.2
21:15 1021 30.15 850 25.1 8 46.4 51 -1.6 29.1
21:20 1021 30.15 850 25.1 7.9 46.2 50 -1.7 28.9
21:25 1021 30.15 850 25.1 7.8 46.1 51 -1.7 29
21:30 1021 30.15 850 25.1 7.6 45.7 51 -1.9 28.7
21:35 1021 30.15 850 25.1 7.7 45.8 50 -2.1 28.3
21:40 1021 30.15 850 25.1 7.7 45.9 49 -2.2 28.1
21:45 1021 30.15 850 25.1 7.9 46.1 48 -2.5 27.6
21:50 1021 30.15 850 25.1 8 46.4 48 -2.4 27.6
21:55 1021 30.15 850 25.1 8 46.5 47 -2.4 27.6
22:00 1021 30.15 850 25.1 7.9 46.3 47 -2.6 27.4
22:05 1021 30.15 850 25.1 7.8 46 49 -2.4 27.7
22:10 1020 30.12 850 25.1 7.8 46 46 -3.1 26.4
22:15 1020 30.12 850 25.1 7.8 46.1 47 -2.8 26.9
22:20 1020 30.12 850 25.1 7.8 46.1 46 -3.2 26.3
22:25 1020 30.12 850 25.1 7.9 46.1 45 -3.4 25.8
22:30 1020 30.12 849 25.07 8.1 46.5 44 -3.4 25.9
22:35 1020 30.12 849 25.07 7.8 46.1 45 -3.2 26.2
22:40 1020 30.12 849 25.07 7.5 45.5 46 -3.4 25.8
22:45 1020 30.12 849 25.07 7.5 45.5 45 -3.7 25.3
22:50 1020 30.12 849 25.07 7.9 46.1 41 -4.6 23.7
22:55 1020 30.12 849 25.07 8.7 47.7 36 -5.6 21.9
23:00 1020 30.12 849 25.07 9.6 49.3 35 -5 23.1
23:05 1020 30.12 849 25.07 9.6 49.2 37 -4.5 23.8
23:10 1020 30.12 849 25.07 9.4 48.9 36 -4.9 23.1
23:15 1020 30.12 849 25.07 9.6 49.2 36 -4.9 23.2
23:20 1020 30.12 849 25.07 9.6 49.3 35 -5.2 22.6
23:25 1020 30.12 849 25.07 9.4 48.8 37 -4.5 24
23:30 1020 30.12 849 25.07 8.9 48.1 38 -4.7 23.5
23:35 1020 30.12 849 25.07 8.9 48.1 36 -5.3 22.5
23:40 1020 30.12 849 25.07 8.9 48.1 37 -4.8 23.4
23:45 1020 30.12 849 25.07 8.8 47.8 37 -5 23
23:50 1020 30.12 849 25.07 8.7 47.6 38 -4.7 23.5
23:55 1020 30.12 849 25.07 8.4 47.1 39 -4.7 23.5
24:00 1020 30.12 849 25.07 8.2 46.8 38 -5.2 22.7
17:20 1027 30.33 856 25.28 10.7 51.2 32 -5.3 22.4
17:25 1027 30.33 856 25.28 10.9 51.6 29 -6.4 20.4
17:30 1027 30.33 856 25.28 11 51.9 30 -6 21.3
17:35 1027 30.33 856 25.28 11.3 52.3 30 -5.7 21.8
17:40 1027 30.33 856 25.28 11.1 52 30 -5.7 21.7
17:45 1027 30.33 856 25.28 10.6 51.1 34 -4.7 23.5
17:50 1027 30.33 856 25.28 10.5 50.9 33 -5 23
17:55 1027 30.33 856 25.28 10.1 50.1 42 -2.1 28.2
18:00 1027 30.33 856 25.28 8.6 47.5 54 -0 31.9
18:05 1027 30.33 856 25.28 7.7 45.8 58 -0.1 31.8
18:10 1027 30.33 856 25.28 7.4 45.3 57 -0.5 31.1
18:15 1027 30.33 856 25.28 7.4 45.4 56 -0.7 30.8
18:20 1027 30.33 856 25.28 7.3 45.2 58 -0.4 31.3
18:25 1027 30.33 856 25.28 7 44.6 59 -0.4 31.4
18:30 1027 30.33 856 25.28 6.7 44.1 62 -0.1 31.8
18:35 1027 30.33 856 25.28 6.4 43.6 63 -0 32
18:40 1027 30.33 856 25.28 6.3 43.3 65 0.1 32.2
18:45 1027 30.33 856 25.28 6.2 43.1 65 0.1 32.2
18:50 1027 30.33 856 25.28 6.2 43.1 65 0.1 32.3
18:55 1027 30.33 857 25.31 6.1 43 65 0 32.1
19:00 1027 30.33 856 25.28 6.2 43.1 64 -0.1 31.9
19:05 1027 30.33 856 25.28 6.2 43.2 65 0.1 32.1
19:10 1027 30.33 856 25.28 6 42.9 65 0.1 32.1
19:15 1027 30.33 856 25.28 6 42.8 64 -0.3 31.4
19:20 1027 30.33 856 25.28 6.1 43 64 -0.1 31.8
19:25 1027 30.33 856 25.28 5.9 42.5 66 -0 32
19:30 1027 30.33 857 25.31 5.6 42.1 67 -0.1 31.9
19:35 1027 30.33 857 25.31 5.6 42 67 -0.1 31.9
19:40 1027 30.33 856 25.28 5.5 42 68 0.1 32.2
19:45 1027 30.33 857 25.31 5.2 41.3 70 0.1 32.1
19:50 1027 30.33 857 25.31 4.9 40.8 71 0.1 32.1
19:55 1027 30.33 856 25.28 4.7 40.5 71 -0.2 31.7
20:00 1027 30.33 856 25.28 4.7 40.5 72 0.1 32.3
20:05 1027 30.33 857 25.31 4.4 39.9 73 -0.1 31.8
20:10 1027 30.33 857 25.31 4.7 40.4 69 -0.4 31.2
20:15 1027 30.33 857 25.31 5.2 41.3 68 -0.3 31.5
20:20 1027 30.33 857 25.31 5.2 41.3 69 -0.1 31.9
20:25 1027 30.33 857 25.31 5.1 41.1 69 -0.1 31.8
20:30 1027 30.33 857 25.31 4.9 40.9 71 0 32.1
20:35 1027 30.33 857 25.31 4.7 40.5 71 -0.1 31.8
20:40 1027 30.33 857 25.31 4.7 40.4 72 -0 31.9
20:45 1027 30.33 856 25.28 4.4 39.8 73 -0.1 31.8
20:50 1027 30.33 856 25.28 4.4 39.8 72 -0.2 31.7
20:55 1027 30.33 856 25.28 4.8 40.6 68 -0.6 31
21:00 1027 30.33 856 25.28 5.2 41.4 67 -0.4 31.2
21:05 1027 30.33 856 25.28 5 41.1 69 -0.1 31.8
21:10 1027 30.33 856 25.28 4.6 40.3 70 -0.3 31.4
21:15 1027 30.33 856 25.28 4.7 40.5 69 -0.5 31.1
21:20 1027 30.33 856 25.28 5 40.9 69 -0.3 31.5
21:25 1027 30.33 856 25.28 4.7 40.5 71 -0 31.9
21:30 1027 30.33 856 25.28 4.3 39.7 72 -0.4 31.3
21:35 1027 30.33 856 25.28 4.5 40.1 70 -0.5 31.2
21:40 1027 30.33 856 25.28 4.4 39.9 73 -0 31.9
21:45 1027 30.33 856 25.28 3.8 38.8 75 -0.3 31.5
21:50 1027 30.33 856 25.28 4.1 39.3 72 -0.5 31.2
21:55 1027 30.33 856 25.28 4.3 39.8 72 -0.3 31.4
22:00 1027 30.33 856 25.28 4.1 39.4 71 -0.6 30.9
22:05 1027 30.33 856 25.28 4.1 39.4 71 -0.8 30.6
22:10 1027 30.33 856 25.28 4.4 39.9 70 -0.5 31
22:15 1027 30.33 856 25.28 4.2 39.6 70 -0.7 30.8
22:20 1027 30.33 856 25.28 4.5 40.1 69 -0.7 30.7
22:25 1027 30.33 856 25.28 4.8 40.6 68 -0.6 30.9
22:30 1027 30.33 856 25.28 4.7 40.5 69 -0.4 31.3
22:35 1027 30.33 856 25.28 4.2 39.5 73 -0.3 31.5
22:40 1027 30.33 856 25.28 4 39.2 70 -0.9 30.3
22:45 1027 30.33 856 25.28 4.6 40.3 68 -0.8 30.6
22:50 1027 30.33 856 25.28 5.1 41.2 68 -0.3 31.4
22:55 1027 30.33 856 25.28 4.7 40.5 69 -0.4 31.2
23:00 1027 30.33 856 25.28 4.8 40.6 68 -0.6 30.9
23:05 1027 30.33 856 25.28 4.7 40.5 70 -0.4 31.3
23:10 1027 30.33 856 25.28 4.4 40 70 -0.5 31.1
23:15 1027 30.33 856 25.28 4 39.3 74 -0.1 31.8
23:20 1027 30.33 856 25.28 2.9 37.3 79 -0.4 31.2
23:25 1027 30.33 856 25.28 3.2 37.8 76 -0.6 30.9
23:30 1027 30.33 856 25.28 3.5 38.3 76 -0.4 31.4
23:35 1027 30.33 856 25.28 3.4 38.2 76 -0.3 31.4
23:40 1027 30.33 856 25.28 3.2 37.7 77 -0.4 31.2
23:45 1027 30.33 856 25.28 3.2 37.7 77 -0.6 31
23:50 1027 30.33 856 25.28 3.4 38.2 76 -0.5 31.2
23:55 1027 30.33 856 25.28 3.7 38.7 74 -0.4 31.3
24:00 1027 30.33 856 25.28 3.7 38.7 74 -0.4 31.2